Pagina principale
METAR-TAF:

METAR-TAF

Aeroporti :

Aeroporto di Salisburgo

Salisburgo, Austria

latitudine: 47-48N, longitudine: 013-00E, altezza: 430 m

Osservazione

Il bollettino è stato emesso 35 minuti fa, alle 15:20 UTC
Vento 2 kt da direzioni variabili
Temperature 26°C
Umidità 37%
Pressione 1015 hPa
Visibilità 10 km o più
Poco nuvoloso ad un'altezza di 6000 ft

METAR: LOWS 131520Z VRB02KT 9999 FEW060 26/10 Q1015 NOSIG

Ora: 17:55 (15:55 UTC)

Previsione

Il bollettino è stato emesso 4 ore e 40 minuti fa, alle 11:15 UTC
Previsione valida dal 13 alle 12 UTC al 14 alle 12 UTC
Vento 7 kt da nord
Visibilità 10 km o più
Poco nuvoloso ad un'altezza di 6000 ft
Evoluzione graduale
dal 13 alle 17 UTC al 13 alle 19 UTC
Vento 4 kt da sud/sud-est
Evoluzione graduale
dal 14 alle 10 UTC al 14 alle 12 UTC
Vento 7 kt da nord/nord-ovest

TAF: LOWS 131115Z 1312/1412 01007KT 9999 FEW060 TX27/1412Z TN14/1403Z BECMG 1317/1319 15004KT BECMG 1410/1412 34007KT

Osservazioni e previsioni meteorologiche di più di 4000 aeroporti (messaggi METAR e TAF).

Le stazioni disponibili sono rappresentate dai dischi gialli e rossi sulla carta.

Puntare il mouse per vedere il nome della stazione.

Clicca sopra per visualizzare le osservazioni e previsioni meteorologiche.

Per cambiare la mappa : fare clic sui pulsanti verdi con una croce nera per ingrandire, il pulsante verde con un trattino per diminuire, o sulla freccia verde per le mappe adiacenti.


METAR-TAF: